Bunga Kasturi — 9MEV6 — position and weather

sailwx.info

Track history (hours):
 
Tides and Currents Weather Stations Pressure Air Temp Water Temp Dewpoint Dewpoint Depression Visibility Wind Speed Wind Dir Waves Ship Positions

Bunga Kasturi

Last reported at 2018-Jan-08 12:01 UTC. Time now 2018-Jan-22 20:29 UTC.
Position N 14°11' W 061°09'.
Warning: this ship's position is 14 days out of date.

Length 329 m; draft 11 m.

Type: Tanker. MMSI: 533744000.

Date/timePositionNaut miles runAvg speedWind from/ knotsBaromVisibWave heightAir tempDewpointWater temp
2018-Jan-08 12:01N 14°11' W 061°09'114.2
2018-Jan-08 11:57N 14°11' W 061°08'614.4
2018-Jan-08 11:30N 14°13' W 061°02'714.7
2018-Jan-08 11:00N 14°16' W 060°55'714.8
2018-Jan-08 10:30N 14°19' W 060°48'714.2
2018-Jan-08 10:00N 14°22' W 060°41'714.2
2018-Jan-08 09:30N 14°25' W 060°35'612.4
2018-Jan-08 09:00N 14°29' W 060°29'  
2018-Jan-01 01:47N 35°22' W 021°23'  
Track history (hours):
 
Tides and Currents Weather Stations Pressure Air Temp Water Temp Dewpoint Dewpoint Depression Visibility Wind Speed Wind Dir Waves Ship Positions

Bunga Kasturi

Last reported at 2018-Jan-08 12:01 UTC. Time now 2018-Jan-22 20:29 UTC.
Position N 14°11' W 061°09'.
Warning: this ship's position is 14 days out of date.

Length 329 m; draft 11 m.

Type: Tanker. MMSI: 533744000.

Date/timePositionNaut miles runAvg speedWind from/ knotsBaromVisibWave heightAir tempDewpointWater temp
2018-Jan-08 12:01N 14°11' W 061°09'114.2
2018-Jan-08 11:57N 14°11' W 061°08'614.4
2018-Jan-08 11:30N 14°13' W 061°02'714.7
2018-Jan-08 11:00N 14°16' W 060°55'714.8
2018-Jan-08 10:30N 14°19' W 060°48'714.2
2018-Jan-08 10:00N 14°22' W 060°41'714.2
2018-Jan-08 09:30N 14°25' W 060°35'612.4
2018-Jan-08 09:00N 14°29' W 060°29'  
2018-Jan-01 01:47N 35°22' W 021°23'  

Dump ship's entire track history